Accueil
METAR-TAF:

METAR-TAF

Aéroports :

Izumo, Japon

latitude: 35-25N, longitude: 132-54E, altitude: 2 m

Observation

Le bulletin a été fait il y a 57 minutes, à 08:00 UTC
Vent 2 kt de direction variable
Température 5°C
Humidité 81%
Pression 1029 hPa
Visibilité 10 km ou plus
Quelques nuages à une hauteur de 800 ft
Nuages épars à une hauteur de 3000 ft
Nuages fragmentés

METAR: RJOC 060800Z VRB02KT 9999 FEW008 SCT030 BKN/// 05/02 Q1029

Heure: 17:57 (08:57 UTC)

Prévision

Le bulletin a été fait il y a 3 heures et 52 minutes, à 05:05 UTC
Prévision valable du 06 à 06 UTC au 07 à 12 UTC
Vent 4 kt de sud
Visibilité: 9000 m
Quelques nuages à une hauteur de 800 ft
Nuages épars à une hauteur de 1500 ft
Nuages fragmentés à une hauteur de 3000 ft
faibles averses de pluie

TAF: RJOC 060505Z 0606/0712 18004KT 9000 -SHRA FEW008 SCT015 BKN030

Observations et prévisions météorologiques de plus de 4000 aéroports (messages METAR et TAF).

Les stations disponibles sont représentées par des disques jaunes et rouges sur la carte.

Passer la souris dessus pour voir le nom de la station.

Cliquer dessus pour voir les observations et prévisions météorologiques.

Pour changer de carte: cliquez sur les boutons verts avec une croix noire pour zoomer, sur le bouton vert avec un tiret pour effectuer un zoom arrière, ou sur les flèches vertes pour les cartes adjacentes.


METAR-TAF: